Time;durP1;ratioP1;P1;durP2;ratioP2;P2;SDS_P1;SDS_P2;PMS_P1;PMS_P2;Temp;Humidity;BMP_temperature;BMP_pressure;BME280_temperature;BME280_humidity;BME280_pressure;Samples;Min_cycle;Max_cycle;Signal;HPM_P1;HPM_P2
2023/09/11 00:02:03;;;;;;;49.10;23.85;;;;;;;;;;5075715;28;20044;-72
2023/09/11 00:04:29;;;;;;;31.25;16.27;;;;;;;;;;5073408;28;20466;-72
2023/09/11 00:06:54;;;;;;;33.40;16.10;;;;;;;;;;5077481;28;20031;-72
2023/09/11 00:09:21;;;;;;;42.45;20.38;;;;;;;;;;5076095;28;20028;-72
2023/09/11 00:11:47;;;;;;;35.90;17.65;;;;;;;;;;5072151;28;20030;-72
2023/09/11 00:14:12;;;;;;;38.63;16.88;;;;;;;;;;5078122;28;20438;-72
2023/09/11 00:16:37;;;;;;;43.38;20.05;;;;;;;;;;5093443;28;20030;-72
2023/09/11 00:19:03;;;;;;;29.58;14.27;;;;;;;;;;5087639;28;20485;-72
2023/09/11 00:21:29;;;;;;;31.98;16.30;;;;;;;;;;5073278;28;20019;-72
2023/09/11 00:23:54;;;;;;;26.52;13.35;;;;;;;;;;5078929;28;20103;-72
2023/09/11 00:26:19;;;;;;;28.33;13.45;;;;;;;;;;5073156;28;20394;-72
2023/09/11 00:28:44;;;;;;;32.28;15.60;;;;;;;;;;5073728;28;20048;-72
2023/09/11 00:31:10;;;;;;;48.00;21.02;;;;;;;;;;5093413;28;20574;-72
2023/09/11 00:33:35;;;;;;;41.30;19.73;;;;;;;;;;5093067;28;20027;-72
2023/09/11 00:36:00;;;;;;;41.80;17.75;;;;;;;;;;5092589;28;20066;-72
2023/09/11 00:38:26;;;;;;;45.40;23.27;;;;;;;;;;5091896;28;20024;-72
2023/09/11 00:40:52;;;;;;;43.47;20.20;;;;;;;;;;5093030;28;20020;-72
2023/09/11 00:43:17;;;;;;;47.78;22.92;;;;;;;;;;5092102;28;20027;-72
2023/09/11 00:45:43;;;;;;;39.17;20.38;;;;;;;;;;5092552;28;20393;-72
2023/09/11 00:48:10;;;;;;;43.88;22.80;;;;;;;;;;5091780;28;20405;-72
2023/09/11 00:50:36;;;;;;;31.65;15.77;;;;;;;;;;5091479;28;20039;-72
2023/09/11 00:53:02;;;;;;;28.20;13.63;;;;;;;;;;5091514;28;20032;-73
2023/09/11 00:55:28;;;;;;;28.65;14.25;;;;;;;;;;5076291;28;20052;-72
2023/09/11 00:57:53;;;;;;;26.80;13.13;;;;;;;;;;5071628;28;20030;-72
2023/09/11 01:00:19;;;;;;;23.40;12.20;;;;;;;;;;5078082;28;20013;-72
2023/09/11 01:02:44;;;;;;;22.35;10.43;;;;;;;;;;5072912;28;20028;-72
2023/09/11 01:05:09;;;;;;;30.42;13.30;;;;;;;;;;5077742;28;20028;-72
2023/09/11 01:07:35;;;;;;;38.95;17.67;;;;;;;;;;5093160;28;20040;-72
2023/09/11 01:10:05;;;;;;;40.90;18.77;;;;;;;;;;5091515;28;20084;-72
2023/09/11 01:12:32;;;;;;;41.83;20.42;;;;;;;;;;5092172;28;20027;-72
2023/09/11 01:14:57;;;;;;;34.53;16.45;;;;;;;;;;5092579;28;20466;-72
2023/09/11 01:17:31;;;;;;;33.00;16.77;;;;;;;;;;5093344;28;20039;-72
2023/09/11 01:20:19;;;;;;;26.95;13.23;;;;;;;;;;5080688;22;20049;-74
2023/09/11 01:23:00;;;;;;;42.72;19.42;;;;;;;;;;5053333;28;20032;-73
2023/09/11 01:25:55;;;;;;;46.42;22.50;;;;;;;;;;5052078;28;20024;-73
2023/09/11 01:28:44;;;;;;;50.38;21.63;;;;;;;;;;5052115;28;20056;-73
2023/09/11 01:31:10;;;;;;;47.55;22.75;;;;;;;;;;5053219;28;20083;-74
2023/09/11 01:33:38;;;;;;;39.63;19.33;;;;;;;;;;5052243;28;20021;-73
2023/09/11 01:36:03;;;;;;;38.45;18.63;;;;;;;;;;5035694;28;20070;-73
2023/09/11 01:38:29;;;;;;;36.70;17.80;;;;;;;;;;5051557;28;20024;-73
2023/09/11 01:40:57;;;;;;;43.65;21.30;;;;;;;;;;5052089;28;20094;-73
2023/09/11 01:43:26;;;;;;;55.33;24.92;;;;;;;;;;5051935;28;20064;-73
2023/09/11 01:45:52;;;;;;;41.63;18.77;;;;;;;;;;5052045;28;20025;-73
2023/09/11 01:48:18;;;;;;;27.98;15.90;;;;;;;;;;5052525;28;20032;-74
2023/09/11 01:50:44;;;;;;;48.05;20.02;;;;;;;;;;5051569;28;20029;-74
2023/09/11 01:53:09;;;;;;;28.77;15.15;;;;;;;;;;5035372;28;20442;-73
2023/09/11 01:55:35;;;;;;;37.03;17.70;;;;;;;;;;5051815;28;20021;-73
2023/09/11 01:58:00;;;;;;;49.72;21.98;;;;;;;;;;5055095;28;20429;-73
2023/09/11 02:00:26;;;;;;;44.47;21.63;;;;;;;;;;5055430;28;20045;-74
2023/09/11 02:02:55;;;;;;;41.22;20.88;;;;;;;;;;5054953;28;20397;-74
2023/09/11 02:05:20;;;;;;;31.77;15.90;;;;;;;;;;5056907;28;20477;-74
2023/09/11 02:07:45;;;;;;;27.05;14.93;;;;;;;;;;5055316;28;20025;-74
2023/09/11 02:10:10;;;;;;;43.30;18.88;;;;;;;;;;5056496;28;20028;-74
2023/09/11 02:12:36;;;;;;;42.08;19.60;;;;;;;;;;5056412;28;20044;-74
2023/09/11 02:15:01;;;;;;;39.13;20.38;;;;;;;;;;5056393;28;20029;-73
2023/09/11 02:17:26;;;;;;;45.65;22.25;;;;;;;;;;5055325;28;20025;-73
2023/09/11 02:19:51;;;;;;;38.33;19.38;;;;;;;;;;5054947;28;20039;-73
2023/09/11 02:22:17;;;;;;;37.97;19.50;;;;;;;;;;5056748;28;20029;-73
2023/09/11 02:24:42;;;;;;;39.35;19.83;;;;;;;;;;5055917;28;20437;-73
2023/09/11 02:27:07;;;;;;;54.88;25.73;;;;;;;;;;5054971;28;20056;-74
2023/09/11 02:29:33;;;;;;;41.70;20.13;;;;;;;;;;5056142;28;20030;-73
2023/09/11 02:31:58;;;;;;;43.42;20.08;;;;;;;;;;5056028;28;20092;-74
2023/09/11 02:34:23;;;;;;;28.35;14.63;;;;;;;;;;5038288;28;20063;-73
2023/09/11 02:36:48;;;;;;;43.40;19.27;;;;;;;;;;5050108;28;20032;-73
2023/09/11 02:39:14;;;;;;;45.17;18.85;;;;;;;;;;5036937;28;20049;-74
2023/09/11 02:41:39;;;;;;;42.80;19.95;;;;;;;;;;5035994;28;20022;-74
2023/09/11 02:44:05;;;;;;;53.45;23.10;;;;;;;;;;5034679;28;20466;-74
2023/09/11 02:46:30;;;;;;;55.17;25.73;;;;;;;;;;5035975;28;20022;-74
2023/09/11 02:48:55;;;;;;;53.88;26.42;;;;;;;;;;5018124;28;20080;-74
2023/09/11 02:51:21;;;;;;;57.28;25.05;;;;;;;;;;5044712;28;20029;-73
2023/09/11 02:53:46;;;;;;;57.20;26.58;;;;;;;;;;5053544;28;20025;-74
2023/09/11 02:56:11;;;;;;;54.58;23.30;;;;;;;;;;5047718;28;20387;-74
2023/09/11 02:58:37;;;;;;;57.28;23.77;;;;;;;;;;5052240;28;20048;-74
2023/09/11 03:01:03;;;;;;;61.50;28.23;;;;;;;;;;5055418;28;20443;-74
2023/09/11 03:03:28;;;;;;;68.82;31.23;;;;;;;;;;5045490;28;20036;-73
2023/09/11 03:05:55;;;;;;;58.60;24.67;;;;;;;;;;5050380;28;20041;-74
2023/09/11 03:08:21;;;;;;;50.95;22.08;;;;;;;;;;5043166;28;20063;-74
2023/09/11 03:10:46;;;;;;;37.47;18.77;;;;;;;;;;5047215;28;20057;-73
2023/09/11 03:13:11;;;;;;;41.70;19.85;;;;;;;;;;5054449;28;20033;-73
2023/09/11 03:15:36;;;;;;;37.78;17.23;;;;;;;;;;5054078;28;20025;-74
2023/09/11 03:18:02;;;;;;;48.40;20.27;;;;;;;;;;5053422;28;20024;-74
2023/09/11 03:20:27;;;;;;;42.88;19.98;;;;;;;;;;5054974;28;20017;-74
2023/09/11 03:22:53;;;;;;;41.08;18.05;;;;;;;;;;5047249;28;20108;-74
2023/09/11 03:25:19;;;;;;;68.25;27.27;;;;;;;;;;5054077;28;20028;-74
2023/09/11 03:27:44;;;;;;;47.38;20.90;;;;;;;;;;5053908;28;20025;-74
2023/09/11 03:30:10;;;;;;;61.38;25.98;;;;;;;;;;5052967;28;20075;-74
2023/09/11 03:32:35;;;;;;;64.38;27.63;;;;;;;;;;5053721;28;20064;-74
2023/09/11 03:35:00;;;;;;;67.28;27.38;;;;;;;;;;5041793;28;20029;-73
2023/09/11 03:37:25;;;;;;;55.65;24.65;;;;;;;;;;5044441;28;20056;-73
2023/09/11 03:39:51;;;;;;;66.28;28.23;;;;;;;;;;5033505;28;20022;-73
2023/09/11 03:42:16;;;;;;;64.47;25.55;;;;;;;;;;5034703;28;20545;-74
2023/09/11 03:44:41;;;;;;;47.72;21.63;;;;;;;;;;5033608;28;20095;-74
2023/09/11 03:47:07;;;;;;;44.70;21.65;;;;;;;;;;5050063;28;20040;-74
2023/09/11 03:49:32;;;;;;;63.50;25.02;;;;;;;;;;5053345;28;20027;-74
2023/09/11 03:51:57;;;;;;;66.47;26.13;;;;;;;;;;5035847;28;20475;-74
2023/09/11 03:54:23;;;;;;;65.20;26.02;;;;;;;;;;5053616;28;20025;-73
2023/09/11 03:56:48;;;;;;;62.00;23.67;;;;;;;;;;5053145;28;20024;-74
2023/09/11 03:59:14;;;;;;;79.35;28.08;;;;;;;;;;5053075;28;20037;-74
2023/09/11 04:01:39;;;;;;;62.95;26.60;;;;;;;;;;5053274;28;20028;-74
2023/09/11 04:04:05;;;;;;;61.28;25.95;;;;;;;;;;5053247;28;20481;-74
2023/09/11 04:06:30;;;;;;;47.03;22.63;;;;;;;;;;5053319;28;20478;-74
2023/09/11 04:08:55;;;;;;;56.80;26.67;;;;;;;;;;5053428;28;20040;-73
2023/09/11 04:11:22;;;;;;;63.22;28.17;;;;;;;;;;5036773;28;20028;-74
2023/09/11 04:13:48;;;;;;;60.83;26.42;;;;;;;;;;5049049;28;20398;-74
2023/09/11 04:16:15;;;;;;;52.60;26.05;;;;;;;;;;5049713;28;20025;-74
2023/09/11 04:18:42;;;;;;;37.30;19.58;;;;;;;;;;5049368;28;20398;-74
2023/09/11 04:21:07;;;;;;;41.10;20.60;;;;;;;;;;5022690;28;20440;-74
2023/09/11 04:23:32;;;;;;;48.20;21.20;;;;;;;;;;5035239;28;20029;-74
2023/09/11 04:25:57;;;;;;;51.55;25.38;;;;;;;;;;5037395;28;20083;-74
2023/09/11 04:28:23;;;;;;;37.42;19.20;;;;;;;;;;5032159;28;20438;-74
2023/09/11 04:30:48;;;;;;;40.83;20.92;;;;;;;;;;5033914;28;20033;-74
2023/09/11 04:33:13;;;;;;;57.03;26.48;;;;;;;;;;5022397;28;20025;-74
2023/09/11 04:35:39;;;;;;;52.47;25.02;;;;;;;;;;5053209;28;20021;-74
2023/09/11 04:38:04;;;;;;;37.67;19.83;;;;;;;;;;5054059;28;20024;-74
2023/09/11 04:40:29;;;;;;;45.67;23.50;;;;;;;;;;5053235;28;20021;-74
2023/09/11 04:42:55;;;;;;;47.88;22.13;;;;;;;;;;5052410;28;20102;-73
2023/09/11 04:45:20;;;;;;;45.17;22.73;;;;;;;;;;5053539;28;20036;-74
2023/09/11 04:47:45;;;;;;;52.88;25.77;;;;;;;;;;5053708;28;20486;-73
2023/09/11 04:50:10;;;;;;;51.20;25.67;;;;;;;;;;5051911;28;20029;-74
2023/09/11 04:52:36;;;;;;;46.13;21.35;;;;;;;;;;5053082;28;20032;-74
2023/09/11 04:55:01;;;;;;;38.50;19.60;;;;;;;;;;5051902;28;20059;-74
2023/09/11 04:57:26;;;;;;;34.63;17.52;;;;;;;;;;5053163;28;20465;-74
2023/09/11 04:59:52;;;;;;;38.75;19.95;;;;;;;;;;5031982;28;20030;-73
2023/09/11 05:02:17;;;;;;;36.17;17.90;;;;;;;;;;5050554;28;20029;-74
2023/09/11 05:04:42;;;;;;;48.03;23.25;;;;;;;;;;5053198;28;20502;-74
2023/09/11 05:07:08;;;;;;;38.88;20.73;;;;;;;;;;5033200;28;20104;-73
2023/09/11 05:09:33;;;;;;;46.97;23.17;;;;;;;;;;5032454;28;20064;-74
2023/09/11 05:11:58;;;;;;;46.40;22.52;;;;;;;;;;5031992;28;20078;-74
2023/09/11 05:14:24;;;;;;;54.13;25.58;;;;;;;;;;5032163;28;20108;-74
2023/09/11 05:16:50;;;;;;;41.13;20.63;;;;;;;;;;5032053;28;20582;-74
2023/09/11 05:19:15;;;;;;;52.50;24.35;;;;;;;;;;5033139;28;20029;-74
2023/09/11 05:21:41;;;;;;;40.78;19.48;;;;;;;;;;5047567;28;20025;-74
2023/09/11 05:24:06;;;;;;;50.22;25.08;;;;;;;;;;5039799;28;20030;-74
2023/09/11 05:26:32;;;;;;;35.30;18.95;;;;;;;;;;5033028;28;20166;-73
2023/09/11 05:28:57;;;;;;;58.30;28.00;;;;;;;;;;5031839;28;20026;-73
2023/09/11 05:31:22;;;;;;;48.08;24.58;;;;;;;;;;5015415;28;20021;-73
2023/09/11 05:33:47;;;;;;;48.83;22.67;;;;;;;;;;5046270;28;20108;-74
2023/09/11 05:36:13;;;;;;;42.38;20.85;;;;;;;;;;5036086;28;20028;-74
2023/09/11 05:38:38;;;;;;;52.92;26.83;;;;;;;;;;5035392;28;20021;-74
2023/09/11 05:41:03;;;;;;;45.55;23.23;;;;;;;;;;5036844;28;20121;-74
2023/09/11 05:43:29;;;;;;;39.63;21.48;;;;;;;;;;5035504;28;20037;-74
2023/09/11 05:45:55;;;;;;;39.08;20.70;;;;;;;;;;5036321;28;20477;-74
2023/09/11 05:48:20;;;;;;;45.20;22.63;;;;;;;;;;5018968;28;20021;-74
2023/09/11 05:50:45;;;;;;;51.58;24.80;;;;;;;;;;5037134;28;20060;-74
2023/09/11 05:53:11;;;;;;;54.88;28.05;;;;;;;;;;5035421;28;20104;-74
2023/09/11 05:55:36;;;;;;;56.33;27.40;;;;;;;;;;5035535;28;20363;-73
2023/09/11 05:58:02;;;;;;;58.85;28.52;;;;;;;;;;5036575;28;20026;-74
2023/09/11 06:00:27;;;;;;;60.00;28.52;;;;;;;;;;5034802;28;20022;-74
2023/09/11 06:02:53;;;;;;;59.72;28.45;;;;;;;;;;5018697;28;20053;-74
2023/09/11 06:05:19;;;;;;;50.97;24.88;;;;;;;;;;5035274;28;20029;-74
2023/09/11 06:07:44;;;;;;;57.83;28.58;;;;;;;;;;5035221;28;20107;-74
2023/09/11 06:10:11;;;;;;;60.42;27.95;;;;;;;;;;5034953;28;20407;-74
2023/09/11 06:12:36;;;;;;;54.42;25.08;;;;;;;;;;5034787;28;20033;-73
2023/09/11 06:15:04;;;;;;;56.50;25.55;;;;;;;;;;5036133;28;20063;-74
2023/09/11 06:17:32;;;;;;;54.47;27.27;;;;;;;;;;5036279;28;20043;-74
2023/09/11 06:19:58;;;;;;;57.05;26.48;;;;;;;;;;5034897;28;20029;-74
2023/09/11 06:22:23;;;;;;;59.95;28.00;;;;;;;;;;5036147;28;20033;-74
2023/09/11 06:24:48;;;;;;;67.03;29.98;;;;;;;;;;5035633;28;20799;-74
2023/09/11 06:27:13;;;;;;;76.65;31.83;;;;;;;;;;5035004;28;20022;-74
2023/09/11 06:29:39;;;;;;;75.60;33.03;;;;;;;;;;5034657;28;20025;-74
2023/09/11 06:32:05;;;;;;;66.15;28.15;;;;;;;;;;5034861;28;20506;-74
2023/09/11 06:34:30;;;;;;;77.78;33.35;;;;;;;;;;5034775;28;20025;-74
2023/09/11 06:36:57;;;;;;;81.38;32.13;;;;;;;;;;5034544;28;20475;-74
2023/09/11 06:39:22;;;;;;;71.70;33.28;;;;;;;;;;5034172;28;20028;-74
2023/09/11 06:41:48;;;;;;;62.50;29.67;;;;;;;;;;5034573;28;20025;-74
2023/09/11 06:44:13;;;;;;;80.00;35.25;;;;;;;;;;5034440;28;20032;-73
2023/09/11 06:46:38;;;;;;;68.28;32.25;;;;;;;;;;5035666;28;20467;-73
2023/09/11 06:49:04;;;;;;;65.30;30.55;;;;;;;;;;5036057;28;20076;-73
2023/09/11 06:51:29;;;;;;;65.63;30.75;;;;;;;;;;5035640;28;20040;-73
2023/09/11 06:53:54;;;;;;;74.80;34.35;;;;;;;;;;5034139;28;20110;-73
2023/09/11 06:56:20;;;;;;;77.95;34.10;;;;;;;;;;5035644;28;20367;-74
2023/09/11 06:58:45;;;;;;;59.50;26.52;;;;;;;;;;5035512;28;20159;-74
2023/09/11 07:01:11;;;;;;;65.15;31.15;;;;;;;;;;5035861;28;20040;-73
2023/09/11 07:03:36;;;;;;;54.85;23.05;;;;;;;;;;5034110;28;20029;-74
2023/09/11 07:06:02;;;;;;;82.05;33.92;;;;;;;;;;5040515;28;20478;-74
2023/09/11 07:08:28;;;;;;;72.25;32.22;;;;;;;;;;5054557;28;20056;-73
2023/09/11 07:10:54;;;;;;;76.47;31.92;;;;;;;;;;5052484;28;20017;-74
2023/09/11 07:13:19;;;;;;;67.85;29.73;;;;;;;;;;5055253;28;20029;-73
2023/09/11 07:15:54;;;;;;;62.15;27.48;;;;;;;;;;5054449;28;20398;-74
2023/09/11 07:18:19;;;;;;;61.25;28.77;;;;;;;;;;5053293;28;20025;-74
2023/09/11 07:20:45;;;;;;;71.57;27.83;;;;;;;;;;5082556;22;20054;-73
2023/09/11 07:23:10;;;;;;;62.97;29.35;;;;;;;;;;5074413;28;20024;-72
2023/09/11 07:25:35;;;;;;;62.17;29.05;;;;;;;;;;5074431;28;20020;-72
2023/09/11 07:28:01;;;;;;;65.68;29.63;;;;;;;;;;5073713;28;20387;-73
2023/09/11 07:30:27;;;;;;;72.00;30.50;;;;;;;;;;5074022;28;20111;-72
2023/09/11 07:32:52;;;;;;;64.18;29.42;;;;;;;;;;5056124;28;20107;-72
2023/09/11 07:35:18;;;;;;;67.95;32.33;;;;;;;;;;5074173;28;20068;-72
2023/09/11 07:37:48;;;;;;;75.30;31.73;;;;;;;;;;5074165;28;20230;-72
2023/09/11 07:40:13;;;;;;;67.78;32.38;;;;;;;;;;5056611;28;20023;-72
2023/09/11 07:42:38;;;;;;;63.40;29.95;;;;;;;;;;5056104;28;20036;-72
2023/09/11 07:45:05;;;;;;;62.38;28.13;;;;;;;;;;5074405;28;20028;-72
2023/09/11 07:47:30;;;;;;;64.60;28.70;;;;;;;;;;5056460;28;20033;-72
2023/09/11 07:49:55;;;;;;;68.50;29.58;;;;;;;;;;5074290;28;20074;-72
2023/09/11 07:52:21;;;;;;;76.07;33.20;;;;;;;;;;5074356;28;20027;-72
2023/09/11 07:54:46;;;;;;;65.55;29.77;;;;;;;;;;5073122;28;20021;-72
2023/09/11 07:57:12;;;;;;;62.97;32.72;;;;;;;;;;5040000;28;20024;-72
2023/09/11 07:59:37;;;;;;;61.28;26.23;;;;;;;;;;5074069;28;20032;-71
2023/09/11 08:02:03;;;;;;;62.17;30.40;;;;;;;;;;5056551;28;20024;-73
2023/09/11 08:04:28;;;;;;;54.70;26.05;;;;;;;;;;5039429;28;20520;-73
2023/09/11 08:06:53;;;;;;;52.58;24.75;;;;;;;;;;5074092;28;20028;-73
2023/09/11 08:09:19;;;;;;;57.13;27.35;;;;;;;;;;5073281;28;20043;-73
2023/09/11 08:11:44;;;;;;;59.05;26.42;;;;;;;;;;5056118;28;20111;-73
2023/09/11 08:14:10;;;;;;;58.08;27.67;;;;;;;;;;5073934;28;20016;-73
2023/09/11 08:16:35;;;;;;;58.22;27.77;;;;;;;;;;5056189;28;20032;-73
2023/09/11 08:19:00;;;;;;;48.00;24.98;;;;;;;;;;5056058;28;20028;-72
2023/09/11 08:21:25;;;;;;;52.28;26.35;;;;;;;;;;5055352;28;20027;-73
2023/09/11 08:23:51;;;;;;;49.88;26.05;;;;;;;;;;5073850;28;20409;-73
2023/09/11 08:26:17;;;;;;;49.42;26.33;;;;;;;;;;5073739;28;20466;-73
2023/09/11 08:28:42;;;;;;;45.17;24.13;;;;;;;;;;5073894;28;20035;-73
2023/09/11 08:31:07;;;;;;;51.03;26.10;;;;;;;;;;5055853;28;20109;-72
2023/09/11 08:33:32;;;;;;;55.33;27.48;;;;;;;;;;5055679;28;20028;-73
2023/09/11 08:35:58;;;;;;;44.17;22.98;;;;;;;;;;5051837;28;21379;-73
2023/09/11 08:38:24;;;;;;;45.95;23.92;;;;;;;;;;5058020;28;20024;-73
2023/09/11 08:40:49;;;;;;;49.67;26.13;;;;;;;;;;5052600;28;20024;-74
2023/09/11 08:43:14;;;;;;;47.38;23.52;;;;;;;;;;5035586;28;20550;-73
2023/09/11 08:45:40;;;;;;;39.85;20.15;;;;;;;;;;5035747;28;20035;-73
2023/09/11 08:48:11;;;;;;;47.35;23.80;;;;;;;;;;5052077;28;20033;-73
2023/09/11 08:50:43;;;;;;;41.45;22.75;;;;;;;;;;5035584;28;20395;-73
2023/09/11 08:53:08;;;;;;;41.75;20.88;;;;;;;;;;5035691;28;20020;-73
2023/09/11 08:55:34;;;;;;;47.42;24.88;;;;;;;;;;5053417;28;20082;-73
2023/09/11 08:58:03;;;;;;;47.88;23.13;;;;;;;;;;5035732;28;20025;-73
2023/09/11 09:00:31;;;;;;;46.67;23.63;;;;;;;;;;5053487;28;20057;-71
2023/09/11 09:02:57;;;;;;;37.70;19.80;;;;;;;;;;5018681;28;20090;-71
2023/09/11 09:05:23;;;;;;;40.40;21.92;;;;;;;;;;5035579;28;20418;-71
2023/09/11 09:07:50;;;;;;;40.40;21.60;;;;;;;;;;5039104;28;20021;-71
2023/09/11 09:10:16;;;;;;;44.17;23.67;;;;;;;;;;5022994;28;20021;-71
2023/09/11 09:12:41;;;;;;;39.78;21.98;;;;;;;;;;5057961;28;20032;-71
2023/09/11 09:15:07;;;;;;;44.20;22.05;;;;;;;;;;5056750;28;20108;-72
2023/09/11 09:17:32;;;;;;;39.60;22.17;;;;;;;;;;5039435;28;20033;-71
2023/09/11 09:19:58;;;;;;;35.22;19.02;;;;;;;;;;5057174;28;20421;-71
2023/09/11 09:22:23;;;;;;;35.45;18.10;;;;;;;;;;5057368;28;20025;-71
2023/09/11 09:24:50;;;;;;;30.85;18.02;;;;;;;;;;5038960;28;20025;-71
2023/09/11 09:27:15;;;;;;;33.60;17.20;;;;;;;;;;5040380;28;20079;-71
2023/09/11 09:29:40;;;;;;;36.08;17.40;;;;;;;;;;5039361;28;20056;-71
2023/09/11 09:32:07;;;;;;;33.85;18.27;;;;;;;;;;5057580;28;20504;-71
2023/09/11 09:34:34;;;;;;;38.35;20.80;;;;;;;;;;5039679;28;20508;-71
2023/09/11 09:37:00;;;;;;;37.05;21.65;;;;;;;;;;5038900;28;20025;-71
2023/09/11 09:39:28;;;;;;;38.05;22.02;;;;;;;;;;5057317;28;20029;-71
2023/09/11 09:41:55;;;;;;;31.80;18.08;;;;;;;;;;5057756;28;20021;-71
2023/09/11 09:44:37;;;;;;;34.67;20.00;;;;;;;;;;5038737;28;20078;-71
2023/09/11 09:47:07;;;;;;;33.88;18.50;;;;;;;;;;5038935;28;20017;-71
2023/09/11 09:49:42;;;;;;;33.08;19.55;;;;;;;;;;5056919;28;20025;-71
2023/09/11 09:52:08;;;;;;;26.55;15.85;;;;;;;;;;5039156;28;20115;-71
2023/09/11 09:54:41;;;;;;;32.47;17.10;;;;;;;;;;5038720;28;20071;-71
2023/09/11 09:57:09;;;;;;;33.88;16.42;;;;;;;;;;5057481;28;20070;-71
2023/09/11 09:59:34;;;;;;;30.75;13.25;;;;;;;;;;5038770;28;20029;-71
2023/09/11 10:01:59;;;;;;;27.98;16.20;;;;;;;;;;5056442;28;20017;-72
2023/09/11 10:04:25;;;;;;;27.48;16.88;;;;;;;;;;5038582;28;20413;-71
2023/09/11 10:06:55;;;;;;;29.70;16.60;;;;;;;;;;5038812;28;20033;-72
2023/09/11 10:09:22;;;;;;;23.23;13.43;;;;;;;;;;5037119;28;20024;-72
2023/09/11 10:11:50;;;;;;;23.75;14.25;;;;;;;;;;5048547;28;20032;-72
2023/09/11 10:14:16;;;;;;;23.50;14.32;;;;;;;;;;5048829;28;20029;-72
2023/09/11 10:16:42;;;;;;;20.13;11.95;;;;;;;;;;5037971;28;20147;-72
2023/09/11 10:19:07;;;;;;;28.50;15.20;;;;;;;;;;5058641;28;20078;-72
2023/09/11 10:21:32;;;;;;;22.60;12.18;;;;;;;;;;5066463;28;20027;-73
2023/09/11 10:23:58;;;;;;;26.40;12.68;;;;;;;;;;5068156;28;20113;-72
2023/09/11 10:26:26;;;;;;;29.33;15.65;;;;;;;;;;5064650;28;20033;-72
2023/09/11 10:28:52;;;;;;;25.38;13.73;;;;;;;;;;5042510;28;20029;-72
2023/09/11 10:31:24;;;;;;;22.85;13.73;;;;;;;;;;5054304;28;20084;-72
2023/09/11 10:33:55;;;;;;;18.77;11.18;;;;;;;;;;5062814;28;20035;-73
2023/09/11 10:36:26;;;;;;;21.60;13.05;;;;;;;;;;5051668;28;20027;-72
2023/09/11 10:38:54;;;;;;;20.48;12.63;;;;;;;;;;5045812;28;20078;-73
2023/09/11 10:41:19;;;;;;;24.27;11.63;;;;;;;;;;5048906;28;20016;-73
2023/09/11 10:43:46;;;;;;;29.38;14.00;;;;;;;;;;5045891;28;20086;-72
2023/09/11 10:46:32;;;;;;;21.08;13.10;;;;;;;;;;5045823;28;20020;-72
2023/09/11 10:48:58;;;;;;;19.40;11.38;;;;;;;;;;5059973;28;20082;-80
2023/09/11 10:51:24;;;;;;;21.10;12.48;;;;;;;;;;5055237;28;20028;-72
2023/09/11 10:53:50;;;;;;;21.75;12.10;;;;;;;;;;5044656;28;20099;-73
2023/09/11 10:56:15;;;;;;;25.02;12.05;;;;;;;;;;5056580;28;20025;-73
2023/09/11 10:58:41;;;;;;;26.85;13.07;;;;;;;;;;5044187;28;20042;-74
2023/09/11 11:01:06;;;;;;;25.05;12.73;;;;;;;;;;5066430;28;20061;-72
2023/09/11 11:03:32;;;;;;;21.33;11.90;;;;;;;;;;5048410;28;20029;-72
2023/09/11 11:05:59;;;;;;;23.38;12.48;;;;;;;;;;5053898;28;20402;-72
2023/09/11 11:08:24;;;;;;;20.48;12.20;;;;;;;;;;5057303;28;20024;-72
2023/09/11 11:10:56;;;;;;;19.73;11.75;;;;;;;;;;5056297;28;20478;-72
2023/09/11 11:13:21;;;;;;;18.48;11.25;;;;;;;;;;5068016;28;20024;-73
2023/09/11 11:15:47;;;;;;;20.70;11.55;;;;;;;;;;5057250;28;20569;-73
2023/09/11 11:18:24;;;;;;;20.83;11.75;;;;;;;;;;5074910;28;20497;-73
2023/09/11 11:21:07;;;;;;;23.50;11.02;;;;;;;;;;5069095;28;20025;-73
2023/09/11 11:23:33;;;;;;;;;;;;;;;;;;5052000;28;20021;-73
2023/09/11 11:26:06;;;;;;;19.40;11.30;;;;;;;;;;5055621;28;19914;-73
2023/09/11 11:28:40;;;;;;;20.10;9.25;;;;;;;;;;5056759;28;20036;-73
2023/09/11 11:31:07;;;;;;;17.73;9.75;;;;;;;;;;5054919;28;20017;-73
2023/09/11 11:33:34;;;;;;;23.63;10.35;;;;;;;;;;5056179;28;20458;-73
2023/09/11 11:36:01;;;;;;;21.55;9.63;;;;;;;;;;5055475;28;20019;-73
2023/09/11 11:38:28;;;;;;;18.65;10.27;;;;;;;;;;5056386;28;20074;-73
2023/09/11 11:40:53;;;;;;;21.08;10.15;;;;;;;;;;5073967;28;20050;-73
2023/09/11 11:43:18;;;;;;;21.10;11.05;;;;;;;;;;5056387;28;20113;-73
2023/09/11 11:45:47;;;;;;;16.77;9.52;;;;;;;;;;5055599;28;20104;-73
2023/09/11 11:48:13;;;;;;;22.80;9.77;;;;;;;;;;5056465;28;20024;-73
2023/09/11 11:50:42;;;;;;;19.40;10.63;;;;;;;;;;5073853;28;20166;-73
2023/09/11 11:53:13;;;;;;;21.90;9.95;;;;;;;;;;5056255;28;20542;-73
2023/09/11 11:55:39;;;;;;;20.88;10.35;;;;;;;;;;5055634;28;20066;-73
2023/09/11 11:58:08;;;;;;;16.15;10.75;;;;;;;;;;5056224;28;20028;-73
2023/09/11 12:00:35;;;;;;;20.88;9.88;;;;;;;;;;5056600;28;20073;-73
2023/09/11 12:03:04;;;;;;;18.95;9.88;;;;;;;;;;5073627;28;20021;-73
2023/09/11 12:05:30;;;;;;;20.23;9.77;;;;;;;;;;5073122;28;20031;-73
2023/09/11 12:07:55;;;;;;;24.40;11.05;;;;;;;;;;5055932;28;20028;-73
2023/09/11 12:10:20;;;;;;;19.60;9.52;;;;;;;;;;5073276;28;20060;-73
2023/09/11 12:12:46;;;;;;;18.23;9.80;;;;;;;;;;5039175;28;20493;-73
2023/09/11 12:15:11;;;;;;;18.73;9.60;;;;;;;;;;5073498;28;20020;-73
2023/09/11 12:17:45;;;;;;;20.65;11.10;;;;;;;;;;5073169;28;20029;-73
2023/09/11 12:20:15;;;;;;;19.60;10.77;;;;;;;;;;5073277;28;20025;-73
2023/09/11 12:22:42;;;;;;;19.45;10.68;;;;;;;;;;5055947;28;20081;-73
2023/09/11 12:25:07;;;;;;;16.73;9.25;;;;;;;;;;5072805;28;20031;-73
2023/09/11 12:27:34;;;;;;;20.27;11.00;;;;;;;;;;5073579;28;20054;-73
2023/09/11 12:29:59;;;;;;;17.33;10.20;;;;;;;;;;5056374;28;20020;-74
2023/09/11 12:32:24;;;;;;;18.90;11.30;;;;;;;;;;5055797;28;20025;-74
2023/09/11 12:34:50;;;;;;;18.23;10.80;;;;;;;;;;5055515;28;20024;-75
2023/09/11 12:37:15;;;;;;;18.08;10.57;;;;;;;;;;5055667;28;20024;-74
2023/09/11 12:39:40;;;;;;;19.48;10.43;;;;;;;;;;5055764;28;20108;-74
2023/09/11 12:42:06;;;;;;;20.70;10.27;;;;;;;;;;5055671;28;20023;-74
2023/09/11 12:44:32;;;;;;;17.95;10.52;;;;;;;;;;5073695;28;20036;-74
2023/09/11 12:47:00;;;;;;;19.50;10.38;;;;;;;;;;5055195;28;20027;-74
2023/09/11 12:49:26;;;;;;;15.32;9.38;;;;;;;;;;5055973;28;20501;-74
2023/09/11 12:51:54;;;;;;;20.35;9.40;;;;;;;;;;5055554;28;20051;-72
2023/09/11 12:54:20;;;;;;;17.20;9.60;;;;;;;;;;5056127;28;20099;-72
2023/09/11 12:56:46;;;;;;;23.75;11.07;;;;;;;;;;5055743;28;20048;-72
2023/09/11 12:59:12;;;;;;;18.58;10.00;;;;;;;;;;5051051;28;20047;-72
2023/09/11 13:01:37;;;;;;;17.48;9.73;;;;;;;;;;5055711;28;20475;-72
2023/09/11 13:04:05;;;;;;;17.70;10.57;;;;;;;;;;5055237;28;20031;-72
2023/09/11 13:06:30;;;;;;;17.48;10.48;;;;;;;;;;5038201;28;20111;-72
2023/09/11 13:08:56;;;;;;;17.30;10.30;;;;;;;;;;5073373;28;20108;-72
2023/09/11 13:11:21;;;;;;;21.85;10.15;;;;;;;;;;5038620;28;20522;-72
2023/09/11 13:13:47;;;;;;;22.55;9.50;;;;;;;;;;5035526;28;20029;-72
2023/09/11 13:16:12;;;;;;;20.08;10.40;;;;;;;;;;5058305;28;20056;-72
2023/09/11 13:18:37;;;;;;;19.52;10.27;;;;;;;;;;5055422;28;20020;-72
2023/09/11 13:21:03;;;;;;;21.38;10.55;;;;;;;;;;5072834;28;20108;-72
2023/09/11 13:23:28;;;;;;;21.83;10.35;;;;;;;;;;5038657;28;20444;-72
2023/09/11 13:25:54;;;;;;;19.38;9.85;;;;;;;;;;5055271;28;20103;-72
2023/09/11 13:28:19;;;;;;;20.08;11.07;;;;;;;;;;5055394;28;20028;-72
2023/09/11 13:30:44;;;;;;;19.08;11.55;;;;;;;;;;5054305;28;20052;-72
2023/09/11 13:33:09;;;;;;;23.02;10.95;;;;;;;;;;5038703;28;20027;-72
2023/09/11 13:35:35;;;;;;;17.13;9.85;;;;;;;;;;5054908;28;20028;-72
2023/09/11 13:38:02;;;;;;;14.55;10.02;;;;;;;;;;5073578;28;20470;-72
2023/09/11 13:40:27;;;;;;;19.35;10.85;;;;;;;;;;5055524;28;20096;-72
2023/09/11 13:42:53;;;;;;;15.38;9.95;;;;;;;;;;5055046;28;20063;-72
2023/09/11 13:45:19;;;;;;;17.90;10.10;;;;;;;;;;5073043;28;20021;-72
2023/09/11 13:47:44;;;;;;;17.98;9.77;;;;;;;;;;5055929;28;20474;-72
2023/09/11 13:50:10;;;;;;;20.35;11.55;;;;;;;;;;5055576;28;20486;-72
2023/09/11 13:52:35;;;;;;;18.45;11.93;;;;;;;;;;5073315;28;20039;-73
2023/09/11 13:55:00;;;;;;;21.45;11.52;;;;;;;;;;5041344;28;20024;-72
2023/09/11 13:57:26;;;;;;;18.92;10.55;;;;;;;;;;5076669;28;20024;-71
2023/09/11 13:59:51;;;;;;;17.92;10.88;;;;;;;;;;5058197;28;20028;-72
2023/09/11 14:02:16;;;;;;;21.73;11.13;;;;;;;;;;5076557;28;20535;-72
2023/09/11 14:04:41;;;;;;;15.55;9.90;;;;;;;;;;5076330;28;20024;-72
2023/09/11 14:07:07;;;;;;;23.55;12.30;;;;;;;;;;5047584;28;20017;-72
2023/09/11 14:09:32;;;;;;;16.77;9.13;;;;;;;;;;5045528;28;20052;-72
2023/09/11 14:11:58;;;;;;;17.15;10.57;;;;;;;;;;5055019;28;20133;-72
2023/09/11 14:14:23;;;;;;;17.73;10.77;;;;;;;;;;5040440;28;20025;-72